Time;durP1;ratioP1;P1;durP2;ratioP2;P2;SDS_P1;SDS_P2;PMS_P1;PMS_P2;Temp;Humidity;BMP_temperature;BMP_pressure;BME280_temperature;BME280_humidity;BME280_pressure;Samples;Min_cycle;Max_cycle;Signal;HPM_P1;HPM_P2
2021/10/04 00:00:57;;;;;;;13.13;6.15;;;;;;;;;;4994547;28;20628;-75
2021/10/04 00:03:23;;;;;;;9.90;6.03;;;;;;;;;;4993491;28;20019;-74
2021/10/04 00:05:49;;;;;;;13.00;5.70;;;;;;;;;;4997464;28;20034;-75
2021/10/04 00:08:15;;;;;;;9.65;6.28;;;;;;;;;;5000110;28;20097;-75
2021/10/04 00:10:41;;;;;;;8.80;5.93;;;;;;;;;;5001426;28;20030;-74
2021/10/04 00:13:07;;;;;;;8.68;5.55;;;;;;;;;;5006016;28;20077;-73
2021/10/04 00:15:36;;;;;;;11.85;6.22;;;;;;;;;;4995713;28;20041;-74
2021/10/04 00:18:02;;;;;;;15.23;6.28;;;;;;;;;;4998301;28;20066;-74
2021/10/04 00:20:28;;;;;;;10.60;5.82;;;;;;;;;;5002055;28;20053;-75
2021/10/04 00:22:55;;;;;;;11.18;6.15;;;;;;;;;;5006294;28;20044;-74
2021/10/04 00:25:25;;;;;;;10.95;6.00;;;;;;;;;;5007910;28;20057;-74
2021/10/04 00:27:51;;;;;;;9.52;6.25;;;;;;;;;;4996741;28;20027;-72
2021/10/04 00:30:17;;;;;;;15.45;6.18;;;;;;;;;;4998872;28;20109;-74
2021/10/04 00:32:46;;;;;;;9.60;5.70;;;;;;;;;;5001479;28;20102;-74
2021/10/04 00:35:13;;;;;;;14.38;6.25;;;;;;;;;;5000797;28;20022;-74
2021/10/04 00:37:39;;;;;;;11.52;6.18;;;;;;;;;;4999816;28;20030;-74
2021/10/04 00:40:06;;;;;;;12.15;6.05;;;;;;;;;;4996204;28;20027;-75
2021/10/04 00:42:32;;;;;;;10.63;6.07;;;;;;;;;;4999394;28;20033;-74
2021/10/04 00:44:58;;;;;;;11.10;6.20;;;;;;;;;;5000576;28;20062;-74
2021/10/04 00:47:47;;;;;;;8.93;6.10;;;;;;;;;;4998110;28;20022;-74
2021/10/04 00:50:13;;;;;;;11.25;6.30;;;;;;;;;;4998367;28;20146;-74
2021/10/04 00:52:39;;;;;;;10.00;6.00;;;;;;;;;;5006003;28;20024;-74
2021/10/04 00:55:07;;;;;;;10.70;6.30;;;;;;;;;;4996850;28;20046;-74
2021/10/04 00:57:33;;;;;;;11.52;6.25;;;;;;;;;;5000362;28;20045;-75
2021/10/04 00:59:59;;;;;;;9.60;6.13;;;;;;;;;;4998875;28;20081;-73
2021/10/04 01:02:25;;;;;;;12.15;6.35;;;;;;;;;;5000024;28;20026;-73
2021/10/04 01:04:51;;;;;;;14.60;6.25;;;;;;;;;;5000307;28;20069;-72
2021/10/04 01:07:18;;;;;;;7.95;5.78;;;;;;;;;;5004715;28;20018;-74
2021/10/04 01:09:44;;;;;;;8.73;6.00;;;;;;;;;;4999152;28;20030;-73
2021/10/04 01:12:10;;;;;;;11.65;6.85;;;;;;;;;;5013483;28;20029;-74
2021/10/04 01:14:36;;;;;;;16.80;6.68;;;;;;;;;;4999850;28;20023;-75
2021/10/04 01:17:05;;;;;;;13.15;7.18;;;;;;;;;;5003426;28;20018;-73
2021/10/04 01:19:31;;;;;;;11.65;6.80;;;;;;;;;;4999755;28;20174;-72
2021/10/04 01:21:57;;;;;;;12.82;6.90;;;;;;;;;;5008773;28;20041;-73
2021/10/04 01:24:23;;;;;;;12.85;7.38;;;;;;;;;;5009724;28;20030;-72
2021/10/04 01:26:49;;;;;;;14.52;7.43;;;;;;;;;;4997418;28;20491;-71
2021/10/04 01:29:19;;;;;;;11.25;6.75;;;;;;;;;;5000826;28;20114;-73
2021/10/04 01:31:46;;;;;;;10.05;6.85;;;;;;;;;;4998517;28;20034;-72
2021/10/04 01:34:12;;;;;;;10.70;6.93;;;;;;;;;;5009262;28;20026;-73
2021/10/04 01:36:38;;;;;;;11.30;6.68;;;;;;;;;;5000778;28;20065;-73
2021/10/04 01:39:04;;;;;;;11.57;6.70;;;;;;;;;;5001161;28;20084;-73
2021/10/04 01:41:30;;;;;;;10.48;6.30;;;;;;;;;;5000838;28;20030;-72
2021/10/04 01:43:57;;;;;;;9.27;6.55;;;;;;;;;;5003668;28;20113;-74
2021/10/04 01:46:23;;;;;;;11.23;6.40;;;;;;;;;;5003116;28;20528;-73
2021/10/04 01:48:49;;;;;;;11.65;6.80;;;;;;;;;;4994824;28;20034;-73
2021/10/04 01:51:20;;;;;;;13.07;6.68;;;;;;;;;;4981868;28;20054;-73
2021/10/04 01:53:48;;;;;;;12.38;6.47;;;;;;;;;;4993540;28;20041;-74
2021/10/04 01:56:14;;;;;;;12.38;6.80;;;;;;;;;;4996681;28;20086;-74
2021/10/04 01:58:41;;;;;;;12.60;6.70;;;;;;;;;;4994010;28;20030;-75
2021/10/04 02:01:07;;;;;;;11.38;7.15;;;;;;;;;;4997316;28;20026;-74
2021/10/04 02:03:33;;;;;;;13.50;6.78;;;;;;;;;;4996414;28;20031;-73
2021/10/04 02:05:59;;;;;;;12.60;6.78;;;;;;;;;;4998580;28;20514;-74
2021/10/04 02:08:26;;;;;;;11.82;6.57;;;;;;;;;;5001894;28;20049;-74
2021/10/04 02:10:52;;;;;;;9.65;5.90;;;;;;;;;;4993742;28;20022;-75
2021/10/04 02:13:18;;;;;;;8.63;6.63;;;;;;;;;;5005840;28;20484;-74
2021/10/04 02:15:47;;;;;;;13.85;6.60;;;;;;;;;;4997054;28;20069;-73
2021/10/04 02:18:13;;;;;;;11.57;5.88;;;;;;;;;;5000043;28;20026;-74
2021/10/04 02:20:41;;;;;;;10.27;6.00;;;;;;;;;;5001375;28;20034;-73
2021/10/04 02:23:08;;;;;;;12.30;6.40;;;;;;;;;;5002751;28;20447;-74
2021/10/04 02:25:37;;;;;;;12.90;6.50;;;;;;;;;;5003485;28;20042;-75
2021/10/04 02:28:04;;;;;;;11.02;6.30;;;;;;;;;;4995650;28;20031;-75
2021/10/04 02:30:30;;;;;;;10.27;6.15;;;;;;;;;;5003789;28;20022;-73
2021/10/04 02:32:56;;;;;;;14.02;6.28;;;;;;;;;;5008051;28;20084;-73
2021/10/04 02:35:23;;;;;;;11.00;6.15;;;;;;;;;;5003165;28;20026;-74
2021/10/04 02:37:50;;;;;;;9.32;6.35;;;;;;;;;;5000531;28;20475;-73
2021/10/04 02:40:16;;;;;;;10.20;6.90;;;;;;;;;;4997875;28;20033;-73
2021/10/04 02:42:42;;;;;;;12.90;6.97;;;;;;;;;;5004588;28;20494;-73
2021/10/04 02:45:09;;;;;;;14.07;7.00;;;;;;;;;;4995918;28;20042;-73
2021/10/04 02:50:25;;;;;;;10.80;6.55;;;;;;;;;;4987675;28;20061;-73
2021/10/04 02:53:00;;;;;;;11.20;6.30;;;;;;;;;;4991770;28;20188;-73
2021/10/04 02:55:26;;;;;;;12.35;6.35;;;;;;;;;;4996551;28;20113;-73
2021/10/04 02:57:52;;;;;;;11.52;6.63;;;;;;;;;;5000004;28;20026;-73
2021/10/04 03:00:18;;;;;;;11.82;6.03;;;;;;;;;;4994133;28;20105;-73
2021/10/04 03:02:44;;;;;;;12.65;6.45;;;;;;;;;;4997700;28;20026;-73
2021/10/04 03:05:10;;;;;;;10.27;6.20;;;;;;;;;;4997533;28;20030;-73
2021/10/04 03:07:36;;;;;;;9.55;6.13;;;;;;;;;;4999946;28;20476;-72
2021/10/04 03:10:03;;;;;;;12.32;6.22;;;;;;;;;;4997153;28;20077;-72
2021/10/04 03:12:29;;;;;;;10.80;6.90;;;;;;;;;;5005832;28;20030;-74
2021/10/04 03:14:58;;;;;;;9.00;6.28;;;;;;;;;;4994203;28;20041;-73
2021/10/04 03:17:24;;;;;;;10.70;6.40;;;;;;;;;;4999271;28;20507;-73
2021/10/04 03:19:52;;;;;;;10.98;6.45;;;;;;;;;;4997258;28;20026;-73
2021/10/04 03:22:18;;;;;;;11.57;6.22;;;;;;;;;;5008703;28;20030;-74
2021/10/04 03:24:44;;;;;;;9.23;6.35;;;;;;;;;;5004070;28;20199;-73
2021/10/04 03:27:10;;;;;;;12.40;6.18;;;;;;;;;;4997846;28;20028;-73
2021/10/04 03:29:36;;;;;;;10.18;5.80;;;;;;;;;;4998880;28;20031;-72
2021/10/04 03:32:03;;;;;;;11.20;6.10;;;;;;;;;;5000123;28;20060;-72
2021/10/04 03:34:29;;;;;;;14.05;6.30;;;;;;;;;;5002262;28;20056;-74
2021/10/04 03:36:56;;;;;;;11.70;6.40;;;;;;;;;;4996363;28;20035;-75
2021/10/04 03:39:22;;;;;;;9.77;5.85;;;;;;;;;;4993742;28;20026;-74
2021/10/04 03:41:48;;;;;;;11.35;6.18;;;;;;;;;;4995121;28;20388;-75
2021/10/04 03:44:14;;;;;;;11.57;6.20;;;;;;;;;;4996639;28;20061;-74
2021/10/04 03:46:40;;;;;;;12.77;6.45;;;;;;;;;;5003831;28;20042;-74
2021/10/04 03:49:06;;;;;;;10.15;6.70;;;;;;;;;;4993118;28;20030;-74
2021/10/04 03:51:32;;;;;;;8.70;6.28;;;;;;;;;;4994191;28;20033;-71
2021/10/04 03:53:59;;;;;;;10.40;6.45;;;;;;;;;;4996813;28;20031;-74
2021/10/04 03:56:25;;;;;;;15.45;6.32;;;;;;;;;;4996646;28;20042;-74
2021/10/04 03:58:51;;;;;;;12.52;6.70;;;;;;;;;;5000781;28;20026;-74
2021/10/04 04:01:17;;;;;;;11.88;6.50;;;;;;;;;;4997379;28;20053;-74
2021/10/04 04:03:44;;;;;;;10.50;6.85;;;;;;;;;;4994406;28;20077;-75
2021/10/04 04:06:10;;;;;;;13.88;7.05;;;;;;;;;;4996359;28;20044;-74
2021/10/04 04:08:36;;;;;;;14.27;6.80;;;;;;;;;;4997642;28;20031;-74
2021/10/04 04:11:02;;;;;;;12.00;6.65;;;;;;;;;;4994569;28;20026;-74
2021/10/04 04:13:28;;;;;;;17.83;7.75;;;;;;;;;;4996130;28;20393;-72
2021/10/04 04:15:54;;;;;;;15.23;6.93;;;;;;;;;;4992342;28;20106;-75
2021/10/04 04:18:20;;;;;;;9.85;6.13;;;;;;;;;;4994367;28;20023;-73
2021/10/04 04:23:56;;;;;;;10.40;6.50;;;;;;;;;;4907324;29;20043;-74
2021/10/04 04:26:22;;;;;;;8.55;6.07;;;;;;;;;;4909810;29;20084;-71
2021/10/04 04:28:48;;;;;;;11.32;6.80;;;;;;;;;;4908352;29;20096;-71
2021/10/04 04:31:14;;;;;;;8.70;6.68;;;;;;;;;;4912641;29;20028;-71
2021/10/04 04:33:40;;;;;;;10.95;6.72;;;;;;;;;;4904786;29;20033;-74
2021/10/04 04:36:08;;;;;;;10.25;6.70;;;;;;;;;;4908353;29;20058;-72
2021/10/04 04:38:34;;;;;;;15.57;6.53;;;;;;;;;;4898891;29;20047;-71
2021/10/04 04:41:00;;;;;;;13.25;6.72;;;;;;;;;;4904603;29;20040;-71
2021/10/04 04:43:26;;;;;;;12.15;6.63;;;;;;;;;;4909975;29;20037;-73
2021/10/04 04:45:52;;;;;;;12.25;6.50;;;;;;;;;;4906980;29;20032;-76
2021/10/04 04:48:31;;;;;;;;;;;;;;;;;;;;;
2021/10/04 04:51:00;;;;;;;13.15;7.18;;;;;;;;;;4904178;29;20037;-72
2021/10/04 04:53:26;;;;;;;11.90;6.60;;;;;;;;;;4907545;29;20123;-72
2021/10/04 04:55:52;;;;;;;15.10;6.70;;;;;;;;;;4893889;29;20510;-71
2021/10/04 04:58:19;;;;;;;12.60;6.75;;;;;;;;;;4908112;29;20051;-73
2021/10/04 05:00:47;;;;;;;10.82;7.03;;;;;;;;;;4937214;28;20038;-70
2021/10/04 05:03:14;;;;;;;12.65;6.65;;;;;;;;;;4993554;28;20077;-70
2021/10/04 05:05:44;;;;;;;12.55;6.72;;;;;;;;;;4973497;28;20035;-76
2021/10/04 05:08:10;;;;;;;10.98;6.40;;;;;;;;;;4997195;28;20554;-74
2021/10/04 05:10:36;;;;;;;17.17;8.15;;;;;;;;;;5002141;28;20080;-69
2021/10/04 05:13:02;;;;;;;13.02;10.00;;;;;;;;;;4995298;28;20514;-69
2021/10/04 05:15:30;;;;;;;18.90;8.00;;;;;;;;;;4998045;28;20108;-70
2021/10/04 05:17:59;;;;;;;16.83;7.10;;;;;;;;;;4995490;28;20127;-70
2021/10/04 05:20:25;;;;;;;12.75;7.13;;;;;;;;;;4995961;28;20062;-70
2021/10/04 05:22:51;;;;;;;15.23;6.82;;;;;;;;;;4980722;28;20077;-69
2021/10/04 05:25:17;;;;;;;14.23;6.45;;;;;;;;;;4995017;28;20088;-69
2021/10/04 05:27:43;;;;;;;14.23;7.05;;;;;;;;;;4997066;28;20026;-70
2021/10/04 05:30:09;;;;;;;17.80;6.82;;;;;;;;;;4995400;28;20488;-69
2021/10/04 05:32:35;;;;;;;11.73;6.65;;;;;;;;;;4988226;28;20094;-71
2021/10/04 05:35:04;;;;;;;10.90;6.30;;;;;;;;;;4994194;28;20030;-70
2021/10/04 05:37:30;;;;;;;13.35;7.03;;;;;;;;;;5008863;28;20158;-70
2021/10/04 05:39:56;;;;;;;16.30;6.35;;;;;;;;;;4994620;28;20034;-70
2021/10/04 05:42:22;;;;;;;14.80;6.95;;;;;;;;;;4996726;28;20022;-70
2021/10/04 05:44:49;;;;;;;14.57;6.82;;;;;;;;;;5001503;28;20045;-68
2021/10/04 05:47:15;;;;;;;13.55;6.68;;;;;;;;;;4995255;28;20459;-70
2021/10/04 05:49:42;;;;;;;11.75;7.05;;;;;;;;;;4994812;28;20034;-70
2021/10/04 05:52:08;;;;;;;11.35;6.40;;;;;;;;;;4993801;28;20054;-69
2021/10/04 05:54:34;;;;;;;18.02;6.65;;;;;;;;;;4993266;28;20141;-72
2021/10/04 05:57:00;;;;;;;20.52;8.23;;;;;;;;;;4996405;28;20031;-72
2021/10/04 05:59:28;;;;;;;18.42;6.82;;;;;;;;;;4981321;28;20038;-74
2021/10/04 06:01:57;;;;;;;12.60;7.20;;;;;;;;;;5001448;28;20038;-72
2021/10/04 06:04:23;;;;;;;21.55;8.98;;;;;;;;;;4981581;28;20065;-72
2021/10/04 06:06:50;;;;;;;17.63;9.07;;;;;;;;;;4994168;28;20042;-73
2021/10/04 06:09:16;;;;;;;22.55;8.68;;;;;;;;;;4976059;28;20471;-76
2021/10/04 06:11:44;;;;;;;26.85;8.75;;;;;;;;;;5007227;28;20092;-71
2021/10/04 06:14:11;;;;;;;16.48;8.43;;;;;;;;;;4994117;28;20050;-73
2021/10/04 06:16:37;;;;;;;18.33;8.60;;;;;;;;;;4998487;28;20167;-78
2021/10/04 06:19:03;;;;;;;15.30;7.40;;;;;;;;;;5002689;28;20105;-75
2021/10/04 06:21:29;;;;;;;15.70;7.40;;;;;;;;;;4997939;28;20062;-76
2021/10/04 06:23:56;;;;;;;11.15;6.95;;;;;;;;;;4995850;28;20031;-75
2021/10/04 06:26:22;;;;;;;19.95;8.70;;;;;;;;;;4997666;28;20116;-77
2021/10/04 06:28:48;;;;;;;18.00;7.63;;;;;;;;;;4997954;28;20026;-74
2021/10/04 06:31:14;;;;;;;15.07;7.70;;;;;;;;;;5004860;28;20467;-77
2021/10/04 06:33:40;;;;;;;14.00;7.68;;;;;;;;;;4994203;28;20026;-75
2021/10/04 06:36:06;;;;;;;11.40;6.55;;;;;;;;;;5003002;28;20026;-77
2021/10/04 06:38:32;;;;;;;11.60;6.72;;;;;;;;;;4994575;28;20042;-74
2021/10/04 06:40:58;;;;;;;17.92;7.70;;;;;;;;;;4997025;28;20038;-79
2021/10/04 06:43:24;;;;;;;20.35;7.13;;;;;;;;;;4992025;28;20030;-82
2021/10/04 06:45:50;;;;;;;14.52;7.15;;;;;;;;;;4987361;28;20046;-79
2021/10/04 06:48:17;;;;;;;30.10;7.95;;;;;;;;;;4994257;28;20014;-77
2021/10/04 06:50:43;;;;;;;17.30;7.78;;;;;;;;;;4998355;28;20080;-77
2021/10/04 06:53:09;;;;;;;11.45;7.45;;;;;;;;;;4995617;28;20034;-70
2021/10/04 06:55:35;;;;;;;12.55;7.13;;;;;;;;;;4992256;28;20061;-70
2021/10/04 06:58:01;;;;;;;14.48;7.32;;;;;;;;;;4998139;28;20029;-72
2021/10/04 07:00:27;;;;;;;15.43;6.80;;;;;;;;;;4975288;28;20034;-70
2021/10/04 07:02:58;;;;;;;11.82;7.50;;;;;;;;;;5000432;28;20037;-81
2021/10/04 07:05:25;;;;;;;13.93;7.35;;;;;;;;;;4996934;28;20030;-82
2021/10/04 07:07:55;;;;;;;17.35;7.90;;;;;;;;;;4975727;28;20026;-82
2021/10/04 07:10:25;;;;;;;17.17;7.43;;;;;;;;;;4994881;28;20025;-78
2021/10/04 07:12:54;;;;;;;14.02;7.53;;;;;;;;;;4988143;28;20052;-76
2021/10/04 07:15:20;;;;;;;14.20;7.72;;;;;;;;;;4978250;28;20025;-78
2021/10/04 07:17:46;;;;;;;20.27;7.80;;;;;;;;;;4975580;28;20057;-69
2021/10/04 07:20:14;;;;;;;19.98;7.43;;;;;;;;;;5003915;28;20064;-70
2021/10/04 07:22:41;;;;;;;13.43;6.32;;;;;;;;;;4998107;28;20034;-71
2021/10/04 07:25:08;;;;;;;14.25;7.13;;;;;;;;;;4996781;28;20042;-80
2021/10/04 07:27:38;;;;;;;13.43;6.65;;;;;;;;;;4982672;28;20077;-82
2021/10/04 07:30:05;;;;;;;15.32;7.00;;;;;;;;;;4980257;28;20034;-79
2021/10/04 07:32:31;;;;;;;11.02;6.63;;;;;;;;;;4994113;28;20539;-80
2021/10/04 07:34:57;;;;;;;15.85;6.95;;;;;;;;;;4972897;28;20088;-74
2021/10/04 07:37:23;;;;;;;12.52;7.00;;;;;;;;;;4996554;28;20026;-74
2021/10/04 07:39:50;;;;;;;11.25;6.60;;;;;;;;;;4973836;28;20541;-73
2021/10/04 07:42:16;;;;;;;14.02;6.63;;;;;;;;;;4992637;28;20113;-74
2021/10/04 07:44:42;;;;;;;14.75;6.80;;;;;;;;;;4995599;28;20077;-74
2021/10/04 07:47:08;;;;;;;16.50;7.40;;;;;;;;;;4992346;28;20034;-80
2021/10/04 07:49:34;;;;;;;10.20;6.43;;;;;;;;;;4994576;28;20022;-77
2021/10/04 07:52:01;;;;;;;13.10;6.78;;;;;;;;;;4991395;28;20065;-76
2021/10/04 07:54:28;;;;;;;12.85;6.40;;;;;;;;;;4991199;28;20592;-76
2021/10/04 07:56:54;;;;;;;11.57;6.50;;;;;;;;;;5006393;28;20029;-76
2021/10/04 07:59:20;;;;;;;11.52;6.05;;;;;;;;;;4980514;28;20076;-77
2021/10/04 08:01:46;;;;;;;13.70;6.50;;;;;;;;;;4976618;28;20030;-73
2021/10/04 08:04:12;;;;;;;10.38;6.55;;;;;;;;;;4994330;28;20384;-79
2021/10/04 08:06:39;;;;;;;11.82;6.05;;;;;;;;;;4996026;28;20038;-76
2021/10/04 08:09:05;;;;;;;15.25;6.05;;;;;;;;;;4993022;28;20468;-76
2021/10/04 08:11:36;;;;;;;16.95;5.97;;;;;;;;;;4980896;28;20026;-72
2021/10/04 08:14:02;;;;;;;17.10;6.65;;;;;;;;;;4978118;28;20076;-69
2021/10/04 08:16:29;;;;;;;13.18;5.97;;;;;;;;;;4974134;28;20030;-68
2021/10/04 08:18:55;;;;;;;15.57;6.30;;;;;;;;;;5003040;28;20101;-68
2021/10/04 08:21:22;;;;;;;15.15;6.65;;;;;;;;;;4992066;28;20028;-69
2021/10/04 08:23:48;;;;;;;13.38;6.50;;;;;;;;;;4996178;28;20571;-68
2021/10/04 08:26:15;;;;;;;14.57;6.68;;;;;;;;;;4992738;28;20077;-73
2021/10/04 08:28:41;;;;;;;13.18;6.53;;;;;;;;;;4993605;28;20382;-76
2021/10/04 08:31:07;;;;;;;11.80;6.75;;;;;;;;;;5000753;28;20038;-84
2021/10/04 08:33:33;;;;;;;12.45;7.00;;;;;;;;;;4977073;28;20030;-80
2021/10/04 08:36:00;;;;;;;13.30;6.47;;;;;;;;;;4976966;28;20042;-77
2021/10/04 08:38:27;;;;;;;11.27;6.47;;;;;;;;;;4990445;28;20035;-80
2021/10/04 08:40:53;;;;;;;15.15;6.75;;;;;;;;;;4991296;28;20019;-84
2021/10/04 08:43:19;;;;;;;13.45;6.60;;;;;;;;;;4990616;28;20027;-83
2021/10/04 08:45:45;;;;;;;10.93;6.63;;;;;;;;;;4984661;28;20045;-79
2021/10/04 08:48:11;;;;;;;11.60;6.30;;;;;;;;;;4978614;28;20050;-81
2021/10/04 08:50:38;;;;;;;11.35;6.35;;;;;;;;;;4993970;28;20030;-77
2021/10/04 08:53:04;;;;;;;15.40;6.25;;;;;;;;;;4999780;28;20031;-77
2021/10/04 08:55:31;;;;;;;13.82;6.47;;;;;;;;;;4994958;28;20533;-71
2021/10/04 08:57:57;;;;;;;13.07;6.38;;;;;;;;;;4993906;28;20077;-74
2021/10/04 09:00:24;;;;;;;9.73;5.80;;;;;;;;;;4993821;28;20031;-78
2021/10/04 09:02:51;;;;;;;13.75;6.38;;;;;;;;;;4999443;28;20441;-86
2021/10/04 09:05:20;;;;;;;10.70;6.28;;;;;;;;;;4994620;28;20116;-68
2021/10/04 09:07:46;;;;;;;10.85;6.50;;;;;;;;;;4975671;28;20174;-72
2021/10/04 09:10:14;;;;;;;9.20;5.88;;;;;;;;;;5001570;28;20510;-72
2021/10/04 09:12:45;;;;;;;10.60;6.50;;;;;;;;;;4997370;28;20037;-71
2021/10/04 09:15:21;;;;;;;13.50;6.65;;;;;;;;;;4996165;28;20026;-71
2021/10/04 09:17:49;;;;;;;14.75;5.80;;;;;;;;;;4992817;28;20116;-72
2021/10/04 09:20:15;;;;;;;12.02;6.40;;;;;;;;;;5003831;28;20026;-71
2021/10/04 09:22:41;;;;;;;12.30;6.60;;;;;;;;;;5009641;28;20026;-72
2021/10/04 09:25:07;;;;;;;13.45;6.80;;;;;;;;;;4999693;28;20045;-71
2021/10/04 09:27:36;;;;;;;11.90;6.40;;;;;;;;;;4994203;28;20105;-72
2021/10/04 09:30:29;;;;;;;13.38;6.68;;;;;;;;;;4995622;28;20117;-70
2021/10/04 09:33:01;;;;;;;9.98;6.20;;;;;;;;;;4974843;28;20037;-71
2021/10/04 09:35:31;;;;;;;14.13;6.80;;;;;;;;;;4998673;28;20545;-72
2021/10/04 09:38:01;;;;;;;12.27;6.90;;;;;;;;;;4991451;28;20499;-71
2021/10/04 09:40:40;;;;;;;15.00;6.07;;;;;;;;;;4996688;28;20027;-73
2021/10/04 09:43:23;;;;;;;13.23;6.70;;;;;;;;;;5003262;28;20030;-71
2021/10/04 09:46:10;;;;;;;11.40;6.47;;;;;;;;;;4998619;28;20376;-72
2021/10/04 09:48:36;;;;;;;10.73;5.88;;;;;;;;;;4993016;28;20034;-72
2021/10/04 09:51:15;;;;;;;10.98;6.40;;;;;;;;;;4999576;28;20026;-71
2021/10/04 09:53:41;;;;;;;20.65;6.78;;;;;;;;;;4993779;28;20388;-70
2021/10/04 09:56:08;;;;;;;14.50;6.57;;;;;;;;;;4978847;28;20042;-71
2021/10/04 09:58:34;;;;;;;9.30;6.47;;;;;;;;;;4996286;28;20034;-72
2021/10/04 10:01:04;;;;;;;12.95;5.95;;;;;;;;;;4993880;28;20068;-72
2021/10/04 10:03:37;;;;;;;9.07;6.18;;;;;;;;;;4994800;28;20034;-70
2021/10/04 10:06:04;;;;;;;11.45;6.63;;;;;;;;;;4995265;28;20205;-71
2021/10/04 10:08:30;;;;;;;11.70;6.15;;;;;;;;;;5006073;28;20056;-71
2021/10/04 10:11:05;;;;;;;13.23;6.65;;;;;;;;;;4996951;28;20030;-70
2021/10/04 10:13:31;;;;;;;12.48;6.53;;;;;;;;;;4995094;28;20088;-69
2021/10/04 10:16:02;;;;;;;12.70;6.25;;;;;;;;;;4994127;28;20053;-77
2021/10/04 10:18:30;;;;;;;15.73;7.38;;;;;;;;;;4995785;28;20034;-80
2021/10/04 10:21:07;;;;;;;16.67;7.53;;;;;;;;;;5002438;28;20041;-76
2021/10/04 10:23:48;;;;;;;20.13;7.82;;;;;;;;;;4993456;28;20046;-70
2021/10/04 10:26:39;;;;;;;12.48;7.30;;;;;;;;;;4994939;28;20121;-69
2021/10/04 10:29:13;;;;;;;14.90;7.60;;;;;;;;;;4988870;28;20049;-70
2021/10/04 10:31:51;;;;;;;12.73;7.50;;;;;;;;;;5001623;28;20105;-70
2021/10/04 10:34:33;;;;;;;12.52;7.30;;;;;;;;;;4991343;28;20179;-70
2021/10/04 10:37:08;;;;;;;13.38;7.25;;;;;;;;;;5000280;28;20053;-70
2021/10/04 10:39:34;;;;;;;14.40;7.68;;;;;;;;;;4993665;28;20026;-70
2021/10/04 10:42:11;;;;;;;17.38;7.00;;;;;;;;;;5000141;28;20023;-71
2021/10/04 10:44:56;;;;;;;16.35;6.30;;;;;;;;;;4990305;28;20519;-70
2021/10/04 10:47:38;;;;;;;14.02;6.55;;;;;;;;;;4982665;28;20099;-71
2021/10/04 10:50:07;;;;;;;18.08;7.20;;;;;;;;;;5003168;28;20070;-71
2021/10/04 10:52:34;;;;;;;10.15;6.78;;;;;;;;;;4999502;28;20030;-69
2021/10/04 10:55:01;;;;;;;10.23;6.63;;;;;;;;;;4992399;28;20054;-70
2021/10/04 10:57:46;;;;;;;12.48;6.40;;;;;;;;;;4989604;28;20026;-69
2021/10/04 11:00:19;;;;;;;14.75;7.07;;;;;;;;;;4990563;28;20431;-68
2021/10/04 11:02:52;;;;;;;13.50;7.30;;;;;;;;;;4996479;28;20014;-69
2021/10/04 11:05:37;;;;;;;16.27;6.57;;;;;;;;;;4989116;28;20436;-72
2021/10/04 11:08:04;;;;;;;14.38;6.28;;;;;;;;;;4996249;28;20117;-74
2021/10/04 11:10:30;;;;;;;12.68;6.18;;;;;;;;;;4992934;28;20097;-73
2021/10/04 11:13:11;;;;;;;13.27;6.70;;;;;;;;;;4993802;28;20147;-74
2021/10/04 11:15:38;;;;;;;13.43;6.40;;;;;;;;;;4985779;28;20030;-73
2021/10/04 11:18:05;;;;;;;14.43;6.88;;;;;;;;;;4994450;28;20030;-71
2021/10/04 11:20:31;;;;;;;12.57;6.95;;;;;;;;;;4991495;28;20022;-72
2021/10/04 11:23:03;;;;;;;27.83;6.95;;;;;;;;;;5002889;28;20088;-69
2021/10/04 11:25:30;;;;;;;9.82;6.35;;;;;;;;;;4994290;28;20042;-68
2021/10/04 11:27:56;;;;;;;12.07;6.20;;;;;;;;;;4994599;28;20536;-71
2021/10/04 11:30:42;;;;;;;;;;;;;;;;;;;;;
2021/10/04 11:33:09;;;;;;;12.40;6.93;;;;;;;;;;4997756;28;20024;-69
2021/10/04 11:35:35;;;;;;;12.88;6.35;;;;;;;;;;4998999;28;20037;-70
2021/10/04 11:38:07;;;;;;;12.30;7.30;;;;;;;;;;4979979;28;20093;-65
2021/10/04 11:40:34;;;;;;;14.23;6.47;;;;;;;;;;4992209;28;20030;-69
2021/10/04 11:43:04;;;;;;;14.25;6.72;;;;;;;;;;4995475;28;20026;-68
2021/10/04 11:45:30;;;;;;;9.88;6.20;;;;;;;;;;4995754;28;20053;-70
2021/10/04 11:47:59;;;;;;;12.45;6.80;;;;;;;;;;5001085;28;20050;-70
2021/10/04 11:50:26;;;;;;;11.52;6.72;;;;;;;;;;4992497;28;20035;-70
2021/10/04 11:52:53;;;;;;;16.98;6.88;;;;;;;;;;4992036;28;20159;-70
2021/10/04 11:55:20;;;;;;;12.13;7.05;;;;;;;;;;4994216;28;20057;-70
2021/10/04 11:57:48;;;;;;;22.42;6.80;;;;;;;;;;4995621;28;20061;-69
2021/10/04 12:00:16;;;;;;;12.02;6.40;;;;;;;;;;4997260;28;20093;-70
2021/10/04 12:02:45;;;;;;;13.10;7.07;;;;;;;;;;4993709;28;20021;-72
2021/10/04 12:05:12;;;;;;;16.35;6.25;;;;;;;;;;4999494;28;20543;-71
2021/10/04 12:07:38;;;;;;;13.00;6.47;;;;;;;;;;4999467;28;20014;-70
2021/10/04 12:10:05;;;;;;;13.80;6.53;;;;;;;;;;4987428;28;20114;-71
2021/10/04 12:12:34;;;;;;;16.67;6.97;;;;;;;;;;5008211;28;20427;-71
2021/10/04 12:15:01;;;;;;;11.43;6.20;;;;;;;;;;4993123;28;20090;-70
2021/10/04 12:17:27;;;;;;;14.68;6.05;;;;;;;;;;4997032;28;20097;-71
2021/10/04 12:19:53;;;;;;;28.95;6.68;;;;;;;;;;5001541;28;20018;-70
2021/10/04 12:22:28;;;;;;;14.27;6.32;;;;;;;;;;5002383;28;20484;-70
2021/10/04 12:24:54;;;;;;;11.32;6.63;;;;;;;;;;5006269;28;20041;-71
2021/10/04 12:27:22;;;;;;;10.27;5.88;;;;;;;;;;5000303;28;20030;-71
2021/10/04 12:29:49;;;;;;;15.52;6.18;;;;;;;;;;5001298;28;20034;-71
2021/10/04 12:32:16;;;;;;;10.38;5.70;;;;;;;;;;4996930;28;20026;-70
2021/10/04 12:34:55;;;;;;;10.80;5.82;;;;;;;;;;5004118;28;20030;-71
2021/10/04 12:37:31;;;;;;;14.52;6.28;;;;;;;;;;4999312;28;20038;-70
2021/10/04 12:39:58;;;;;;;8.77;5.93;;;;;;;;;;4996562;28;20034;-71
2021/10/04 12:42:27;;;;;;;8.20;5.45;;;;;;;;;;5000802;28;20033;-71
2021/10/04 12:44:53;;;;;;;14.40;6.30;;;;;;;;;;5005457;28;20093;-72
2021/10/04 12:47:19;;;;;;;10.82;6.15;;;;;;;;;;5003120;28;20061;-69
2021/10/04 12:49:59;;;;;;;10.52;5.82;;;;;;;;;;5000732;28;20023;-71
2021/10/04 12:52:26;;;;;;;8.77;6.05;;;;;;;;;;4995516;28;20026;-71
2021/10/04 12:54:53;;;;;;;7.18;5.22;;;;;;;;;;5003077;28;20053;-71
2021/10/04 12:57:22;;;;;;;15.65;6.05;;;;;;;;;;4998636;28;20030;-71
2021/10/04 12:59:55;;;;;;;10.82;5.38;;;;;;;;;;5004460;28;20041;-71
2021/10/04 13:02:25;;;;;;;9.20;5.90;;;;;;;;;;4993040;28;20037;-71
2021/10/04 13:04:52;;;;;;;8.40;5.97;;;;;;;;;;4994338;28;20030;-71
2021/10/04 13:07:18;;;;;;;9.68;5.80;;;;;;;;;;5004877;28;20096;-71
2021/10/04 13:09:44;;;;;;;12.48;5.90;;;;;;;;;;4997499;28;20527;-69
2021/10/04 13:12:12;;;;;;;38.72;6.53;;;;;;;;;;5005419;28;20686;-70
2021/10/04 13:14:39;;;;;;;16.25;5.93;;;;;;;;;;4977114;28;20096;-69
2021/10/04 13:17:05;;;;;;;11.85;5.95;;;;;;;;;;5001436;28;20356;-71
2021/10/04 13:19:31;;;;;;;8.88;5.88;;;;;;;;;;5002157;28;20469;-69
2021/10/04 13:21:57;;;;;;;9.32;5.43;;;;;;;;;;4998892;28;20048;-70
2021/10/04 13:24:24;;;;;;;8.23;5.57;;;;;;;;;;4997864;28;20022;-69
2021/10/04 13:26:50;;;;;;;12.40;6.78;;;;;;;;;;4997167;28;20042;-69
2021/10/04 13:29:17;;;;;;;11.48;5.78;;;;;;;;;;4994956;28;20031;-68
2021/10/04 13:31:43;;;;;;;7.70;5.40;;;;;;;;;;4998264;28;20026;-70
2021/10/04 13:34:11;;;;;;;14.80;5.90;;;;;;;;;;4998684;28;20046;-70
2021/10/04 13:36:39;;;;;;;12.73;5.75;;;;;;;;;;5000920;28;20078;-71
2021/10/04 13:39:06;;;;;;;12.30;6.07;;;;;;;;;;5001624;28;20479;-71
2021/10/04 13:41:34;;;;;;;9.07;5.65;;;;;;;;;;5000272;28;20026;-70
2021/10/04 13:44:00;;;;;;;9.10;5.80;;;;;;;;;;5002483;28;20089;-71
2021/10/04 13:46:26;;;;;;;9.68;5.35;;;;;;;;;;5001072;28;20158;-71
2021/10/04 13:48:52;;;;;;;9.57;5.70;;;;;;;;;;4997698;28;20027;-71
2021/10/04 13:51:22;;;;;;;8.85;5.57;;;;;;;;;;4998543;28;20023;-71
2021/10/04 13:53:50;;;;;;;10.40;6.40;;;;;;;;;;4997573;28;20069;-71
2021/10/04 13:56:19;;;;;;;15.52;5.85;;;;;;;;;;4997081;28;20491;-71
2021/10/04 13:58:45;;;;;;;11.27;6.20;;;;;;;;;;4995201;28;20088;-71
2021/10/04 14:01:11;;;;;;;11.05;6.22;;;;;;;;;;4996084;28;20034;-70
2021/10/04 14:03:37;;;;;;;11.23;5.90;;;;;;;;;;4995886;28;20026;-69
2021/10/04 14:06:03;;;;;;;8.45;6.00;;;;;;;;;;4999342;28;20097;-69
2021/10/04 14:08:30;;;;;;;14.27;6.20;;;;;;;;;;5002952;28;20034;-70
2021/10/04 14:10:56;;;;;;;10.65;5.68;;;;;;;;;;5003993;28;20034;-70
2021/10/04 14:13:22;;;;;;;12.02;6.78;;;;;;;;;;5007121;28;20036;-70
2021/10/04 14:15:49;;;;;;;8.57;6.43;;;;;;;;;;4997109;28;20023;-69
2021/10/04 14:18:15;;;;;;;8.93;5.80;;;;;;;;;;5000933;28;20022;-70
2021/10/04 14:20:41;;;;;;;12.35;6.25;;;;;;;;;;5006599;28;20076;-71
2021/10/04 14:23:07;;;;;;;11.80;6.80;;;;;;;;;;5005014;28;20029;-70
2021/10/04 14:25:33;;;;;;;10.27;6.20;;;;;;;;;;5004381;28;20068;-70
2021/10/04 14:27:59;;;;;;;10.55;6.28;;;;;;;;;;4997384;28;20441;-70
2021/10/04 14:30:26;;;;;;;31.48;6.90;;;;;;;;;;4999228;28;20022;-69
2021/10/04 14:32:52;;;;;;;15.55;6.30;;;;;;;;;;4994204;28;20358;-69
2021/10/04 14:35:19;;;;;;;16.15;6.78;;;;;;;;;;4999827;28;20481;-71
2021/10/04 14:37:48;;;;;;;11.32;6.90;;;;;;;;;;4995819;28;20404;-72
2021/10/04 14:40:15;;;;;;;10.88;7.38;;;;;;;;;;4991249;28;20336;-71
2021/10/04 14:42:44;;;;;;;18.73;7.47;;;;;;;;;;4975242;28;20022;-69